sensor_id;sensor_type;location;lat;lon;timestamp;temperature;humidity
53776;DHT22;44276;49.534;6.378;2022-12-18T00:00:09;-8.80;99.90
53776;DHT22;44276;49.534;6.378;2022-12-18T00:02:38;-9.00;99.90
53776;DHT22;44276;49.534;6.378;2022-12-18T00:05:08;-9.00;99.90
53776;DHT22;44276;49.534;6.378;2022-12-18T00:07:36;-9.10;99.90
53776;DHT22;44276;49.534;6.378;2022-12-18T00:10:06;-9.00;99.90
53776;DHT22;44276;49.534;6.378;2022-12-18T00:12:35;-8.90;99.90
53776;DHT22;44276;49.534;6.378;2022-12-18T00:15:04;-8.80;99.90
53776;DHT22;44276;49.534;6.378;2022-12-18T00:17:32;-8.70;99.90
53776;DHT22;44276;49.534;6.378;2022-12-18T00:20:01;-8.70;99.90
53776;DHT22;44276;49.534;6.378;2022-12-18T00:22:32;-8.60;99.90
53776;DHT22;44276;49.534;6.378;2022-12-18T00:25:00;-8.50;99.90
53776;DHT22;44276;49.534;6.378;2022-12-18T00:27:28;-8.40;99.90
53776;DHT22;44276;49.534;6.378;2022-12-18T00:29:57;-8.40;99.90
53776;DHT22;44276;49.534;6.378;2022-12-18T00:32:25;-8.40;99.90
53776;DHT22;44276;49.534;6.378;2022-12-18T00:34:53;-8.40;99.90
53776;DHT22;44276;49.534;6.378;2022-12-18T00:37:21;-8.50;99.90
53776;DHT22;44276;49.534;6.378;2022-12-18T00:39:51;-8.50;99.90
53776;DHT22;44276;49.534;6.378;2022-12-18T00:42:19;-8.60;99.90
53776;DHT22;44276;49.534;6.378;2022-12-18T00:45:06;-8.50;99.90
53776;DHT22;44276;49.534;6.378;2022-12-18T00:47:39;-8.50;99.90
53776;DHT22;44276;49.534;6.378;2022-12-18T00:50:08;-8.60;99.90
53776;DHT22;44276;49.534;6.378;2022-12-18T00:52:37;-8.70;99.90
53776;DHT22;44276;49.534;6.378;2022-12-18T00:59:05;-8.60;99.90
53776;DHT22;44276;49.534;6.378;2022-12-18T01:01:34;-8.40;99.90
53776;DHT22;44276;49.534;6.378;2022-12-18T01:04:03;-8.40;99.90
53776;DHT22;44276;49.534;6.378;2022-12-18T01:06:32;-8.40;99.90
53776;DHT22;44276;49.534;6.378;2022-12-18T01:09:00;-8.40;99.90
53776;DHT22;44276;49.534;6.378;2022-12-18T01:11:28;-8.40;99.90
53776;DHT22;44276;49.534;6.378;2022-12-18T01:14:00;-8.40;99.90
53776;DHT22;44276;49.534;6.378;2022-12-18T01:16:29;-8.50;99.90
53776;DHT22;44276;49.534;6.378;2022-12-18T01:18:58;-8.50;99.90
53776;DHT22;44276;49.534;6.378;2022-12-18T01:21:26;-8.50;99.90
53776;DHT22;44276;49.534;6.378;2022-12-18T01:23:56;-8.50;99.90
53776;DHT22;44276;49.534;6.378;2022-12-18T01:26:28;-8.60;99.90
53776;DHT22;44276;49.534;6.378;2022-12-18T01:28:59;-8.60;99.90
53776;DHT22;44276;49.534;6.378;2022-12-18T01:31:32;-8.60;99.90
53776;DHT22;44276;49.534;6.378;2022-12-18T01:34:02;-8.60;99.90
53776;DHT22;44276;49.534;6.378;2022-12-18T01:36:32;-8.60;99.90
53776;DHT22;44276;49.534;6.378;2022-12-18T01:39:04;-8.60;99.90
53776;DHT22;44276;49.534;6.378;2022-12-18T01:41:34;-8.60;99.90
53776;DHT22;44276;49.534;6.378;2022-12-18T01:47:38;-8.70;99.90
53776;DHT22;44276;49.534;6.378;2022-12-18T01:50:13;-8.60;99.90
53776;DHT22;44276;49.534;6.378;2022-12-18T01:52:47;-8.70;99.90
53776;DHT22;44276;49.534;6.378;2022-12-18T01:55:21;-8.70;99.90
53776;DHT22;44276;49.534;6.378;2022-12-18T01:57:53;-8.70;99.90
53776;DHT22;44276;49.534;6.378;2022-12-18T02:00:24;-8.60;99.90
53776;DHT22;44276;49.534;6.378;2022-12-18T02:02:56;-8.60;99.90
53776;DHT22;44276;49.534;6.378;2022-12-18T02:05:33;-8.70;99.90
53776;DHT22;44276;49.534;6.378;2022-12-18T02:08:12;-8.70;99.90
53776;DHT22;44276;49.534;6.378;2022-12-18T02:10:51;-8.80;99.90
53776;DHT22;44276;49.534;6.378;2022-12-18T02:13:38;-8.90;99.90
53776;DHT22;44276;49.534;6.378;2022-12-18T02:16:19;-9.00;99.90
53776;DHT22;44276;49.534;6.378;2022-12-18T02:18:56;-9.10;99.90
53776;DHT22;44276;49.534;6.378;2022-12-18T02:21:34;-9.10;99.90
53776;DHT22;44276;49.534;6.378;2022-12-18T02:24:25;-9.20;99.90
53776;DHT22;44276;49.534;6.378;2022-12-18T02:27:05;-9.20;99.90
53776;DHT22;44276;49.534;6.378;2022-12-18T02:29:39;-9.30;99.90
53776;DHT22;44276;49.534;6.378;2022-12-18T02:32:31;-9.30;99.90
53776;DHT22;44276;49.534;6.378;2022-12-18T02:35:05;-9.30;99.90
53776;DHT22;44276;49.534;6.378;2022-12-18T02:37:39;-9.30;99.90
53776;DHT22;44276;49.534;6.378;2022-12-18T02:40:11;-9.30;99.90
53776;DHT22;44276;49.534;6.378;2022-12-18T02:42:42;-9.30;99.90
53776;DHT22;44276;49.534;6.378;2022-12-18T02:45:11;-9.30;99.90
53776;DHT22;44276;49.534;6.378;2022-12-18T02:47:41;-9.30;99.90
53776;DHT22;44276;49.534;6.378;2022-12-18T02:50:18;-9.30;99.90
53776;DHT22;44276;49.534;6.378;2022-12-18T02:53:03;-9.40;99.90
53776;DHT22;44276;49.534;6.378;2022-12-18T02:55:48;-9.50;99.90
53776;DHT22;44276;49.534;6.378;2022-12-18T02:59:26;-9.60;99.90
53776;DHT22;44276;49.534;6.378;2022-12-18T03:02:22;-9.60;99.90
53776;DHT22;44276;49.534;6.378;2022-12-18T03:05:01;-9.60;99.90
53776;DHT22;44276;49.534;6.378;2022-12-18T03:07:38;-9.60;99.90
53776;DHT22;44276;49.534;6.378;2022-12-18T03:10:23;-9.70;99.90
53776;DHT22;44276;49.534;6.378;2022-12-18T03:13:00;-9.70;99.90
53776;DHT22;44276;49.534;6.378;2022-12-18T03:15:38;-9.80;99.90
53776;DHT22;44276;49.534;6.378;2022-12-18T03:18:17;-9.90;99.90
53776;DHT22;44276;49.534;6.378;2022-12-18T03:20:51;-9.90;99.90
53776;DHT22;44276;49.534;6.378;2022-12-18T03:23:32;-9.80;99.90
53776;DHT22;44276;49.534;6.378;2022-12-18T03:26:07;-9.80;99.90
53776;DHT22;44276;49.534;6.378;2022-12-18T03:29:06;-9.60;99.90
53776;DHT22;44276;49.534;6.378;2022-12-18T03:31:42;-9.50;99.90
53776;DHT22;44276;49.534;6.378;2022-12-18T03:34:19;-9.40;99.90
53776;DHT22;44276;49.534;6.378;2022-12-18T03:36:53;-9.40;99.90
53776;DHT22;44276;49.534;6.378;2022-12-18T03:39:28;-9.50;99.90
53776;DHT22;44276;49.534;6.378;2022-12-18T03:42:03;-9.80;99.90
53776;DHT22;44276;49.534;6.378;2022-12-18T03:44:42;-9.80;99.90
53776;DHT22;44276;49.534;6.378;2022-12-18T03:47:33;-9.80;99.90
53776;DHT22;44276;49.534;6.378;2022-12-18T03:50:11;-9.70;99.90
53776;DHT22;44276;49.534;6.378;2022-12-18T03:52:51;-9.80;99.90
53776;DHT22;44276;49.534;6.378;2022-12-18T03:55:25;-9.90;99.90
53776;DHT22;44276;49.534;6.378;2022-12-18T03:57:58;-10.00;99.90
53776;DHT22;44276;49.534;6.378;2022-12-18T04:00:38;-10.00;99.90
53776;DHT22;44276;49.534;6.378;2022-12-18T04:03:11;-10.00;99.90
53776;DHT22;44276;49.534;6.378;2022-12-18T04:05:42;-10.10;99.90
53776;DHT22;44276;49.534;6.378;2022-12-18T04:08:14;-10.20;99.90
53776;DHT22;44276;49.534;6.378;2022-12-18T04:10:43;-10.20;99.90
53776;DHT22;44276;49.534;6.378;2022-12-18T04:13:28;-10.20;99.90
53776;DHT22;44276;49.534;6.378;2022-12-18T04:15:57;-10.30;99.90
53776;DHT22;44276;49.534;6.378;2022-12-18T04:18:35;-10.30;99.90
53776;DHT22;44276;49.534;6.378;2022-12-18T04:21:05;-10.30;99.90
53776;DHT22;44276;49.534;6.378;2022-12-18T04:23:34;-10.10;99.90
53776;DHT22;44276;49.534;6.378;2022-12-18T04:26:02;-10.10;99.90
53776;DHT22;44276;49.534;6.378;2022-12-18T04:28:31;-10.30;99.90
53776;DHT22;44276;49.534;6.378;2022-12-18T04:31:16;-10.30;99.90
53776;DHT22;44276;49.534;6.378;2022-12-18T04:33:49;-10.50;99.90
53776;DHT22;44276;49.534;6.378;2022-12-18T04:36:34;-10.60;99.90
53776;DHT22;44276;49.534;6.378;2022-12-18T04:39:03;-10.60;99.90
53776;DHT22;44276;49.534;6.378;2022-12-18T04:41:32;-10.50;99.90
53776;DHT22;44276;49.534;6.378;2022-12-18T04:44:02;-10.40;99.90
53776;DHT22;44276;49.534;6.378;2022-12-18T04:46:31;-10.40;99.90
53776;DHT22;44276;49.534;6.378;2022-12-18T04:49:01;-10.60;99.90
53776;DHT22;44276;49.534;6.378;2022-12-18T04:51:29;-10.80;99.90
53776;DHT22;44276;49.534;6.378;2022-12-18T04:53:58;-11.00;99.90
53776;DHT22;44276;49.534;6.378;2022-12-18T04:56:26;-11.10;99.90
53776;DHT22;44276;49.534;6.378;2022-12-18T04:58:54;-11.10;99.90
53776;DHT22;44276;49.534;6.378;2022-12-18T05:01:23;-11.00;99.90
53776;DHT22;44276;49.534;6.378;2022-12-18T05:07:03;-11.00;99.90
53776;DHT22;44276;49.534;6.378;2022-12-18T05:09:31;-11.10;99.90
53776;DHT22;44276;49.534;6.378;2022-12-18T05:12:00;-11.20;99.90
53776;DHT22;44276;49.534;6.378;2022-12-18T05:14:32;-11.20;99.90
53776;DHT22;44276;49.534;6.378;2022-12-18T05:17:01;-11.20;99.90
53776;DHT22;44276;49.534;6.378;2022-12-18T05:19:31;-11.10;99.90
53776;DHT22;44276;49.534;6.378;2022-12-18T05:22:03;-11.00;99.90
53776;DHT22;44276;49.534;6.378;2022-12-18T05:24:31;-11.00;99.90
53776;DHT22;44276;49.534;6.378;2022-12-18T05:27:00;-11.10;99.90
53776;DHT22;44276;49.534;6.378;2022-12-18T05:29:33;-11.10;99.90
53776;DHT22;44276;49.534;6.378;2022-12-18T05:32:06;-11.10;99.90
53776;DHT22;44276;49.534;6.378;2022-12-18T05:34:34;-11.00;99.90
53776;DHT22;44276;49.534;6.378;2022-12-18T05:37:04;-10.90;99.90
53776;DHT22;44276;49.534;6.378;2022-12-18T05:39:32;-10.80;99.90
53776;DHT22;44276;49.534;6.378;2022-12-18T05:42:00;-10.80;99.90
53776;DHT22;44276;49.534;6.378;2022-12-18T05:44:28;-10.70;99.90
53776;DHT22;44276;49.534;6.378;2022-12-18T05:46:56;-10.80;99.90
53776;DHT22;44276;49.534;6.378;2022-12-18T05:49:25;-10.90;99.90
53776;DHT22;44276;49.534;6.378;2022-12-18T05:51:53;-11.00;99.90
53776;DHT22;44276;49.534;6.378;2022-12-18T05:54:23;-10.80;99.90
53776;DHT22;44276;49.534;6.378;2022-12-18T05:56:52;-10.80;99.90
53776;DHT22;44276;49.534;6.378;2022-12-18T05:59:20;-10.90;99.90
53776;DHT22;44276;49.534;6.378;2022-12-18T06:01:49;-10.90;99.90
53776;DHT22;44276;49.534;6.378;2022-12-18T06:04:17;-10.90;99.90
53776;DHT22;44276;49.534;6.378;2022-12-18T06:06:45;-10.90;99.90
53776;DHT22;44276;49.534;6.378;2022-12-18T06:09:14;-10.90;99.90
53776;DHT22;44276;49.534;6.378;2022-12-18T06:11:43;-10.90;99.90
53776;DHT22;44276;49.534;6.378;2022-12-18T06:14:11;-10.90;99.90
53776;DHT22;44276;49.534;6.378;2022-12-18T06:16:40;-10.90;99.90
53776;DHT22;44276;49.534;6.378;2022-12-18T06:19:12;-10.80;99.90
53776;DHT22;44276;49.534;6.378;2022-12-18T06:21:42;-10.60;99.90
53776;DHT22;44276;49.534;6.378;2022-12-18T06:24:11;-10.60;99.90
53776;DHT22;44276;49.534;6.378;2022-12-18T06:26:39;-10.70;99.90
53776;DHT22;44276;49.534;6.378;2022-12-18T06:29:09;-10.70;99.90
53776;DHT22;44276;49.534;6.378;2022-12-18T06:31:37;-10.70;99.90
53776;DHT22;44276;49.534;6.378;2022-12-18T06:34:05;-10.70;99.90
53776;DHT22;44276;49.534;6.378;2022-12-18T06:36:34;-10.70;99.90
53776;DHT22;44276;49.534;6.378;2022-12-18T06:39:03;-10.60;99.90
53776;DHT22;44276;49.534;6.378;2022-12-18T06:41:31;-10.50;99.90
53776;DHT22;44276;49.534;6.378;2022-12-18T06:43:59;-10.50;99.90
53776;DHT22;44276;49.534;6.378;2022-12-18T06:46:29;-10.50;99.90
53776;DHT22;44276;49.534;6.378;2022-12-18T06:48:58;-10.50;99.90
53776;DHT22;44276;49.534;6.378;2022-12-18T06:51:26;-10.70;99.90
53776;DHT22;44276;49.534;6.378;2022-12-18T06:53:55;-10.70;99.90
53776;DHT22;44276;49.534;6.378;2022-12-18T06:56:23;-10.70;99.90
53776;DHT22;44276;49.534;6.378;2022-12-18T06:58:51;-10.70;99.90
53776;DHT22;44276;49.534;6.378;2022-12-18T07:01:20;-10.80;99.90
53776;DHT22;44276;49.534;6.378;2022-12-18T07:03:53;-10.90;99.90
53776;DHT22;44276;49.534;6.378;2022-12-18T07:06:24;-11.00;99.90
53776;DHT22;44276;49.534;6.378;2022-12-18T07:08:54;-11.10;99.90
53776;DHT22;44276;49.534;6.378;2022-12-18T07:11:22;-11.10;99.90
53776;DHT22;44276;49.534;6.378;2022-12-18T07:13:52;-11.00;99.90
53776;DHT22;44276;49.534;6.378;2022-12-18T07:16:21;-11.00;99.90
53776;DHT22;44276;49.534;6.378;2022-12-18T07:18:54;-11.10;99.90
53776;DHT22;44276;49.534;6.378;2022-12-18T07:21:24;-11.20;99.90
53776;DHT22;44276;49.534;6.378;2022-12-18T07:23:52;-11.20;99.90
53776;DHT22;44276;49.534;6.378;2022-12-18T07:26:22;-11.20;99.90
53776;DHT22;44276;49.534;6.378;2022-12-18T07:28:55;-11.20;99.90
53776;DHT22;44276;49.534;6.378;2022-12-18T07:31:25;-11.10;99.90
53776;DHT22;44276;49.534;6.378;2022-12-18T07:33:55;-11.10;99.90
53776;DHT22;44276;49.534;6.378;2022-12-18T07:36:23;-11.10;99.90
53776;DHT22;44276;49.534;6.378;2022-12-18T07:38:52;-11.00;99.90
53776;DHT22;44276;49.534;6.378;2022-12-18T07:41:20;-10.80;99.90
53776;DHT22;44276;49.534;6.378;2022-12-18T07:43:48;-10.70;99.90
53776;DHT22;44276;49.534;6.378;2022-12-18T07:46:54;-10.60;99.90
53776;DHT22;44276;49.534;6.378;2022-12-18T07:49:24;-10.60;99.90
53776;DHT22;44276;49.534;6.378;2022-12-18T07:51:54;-10.60;99.90
53776;DHT22;44276;49.534;6.378;2022-12-18T07:54:23;-10.50;99.90
53776;DHT22;44276;49.534;6.378;2022-12-18T07:56:51;-10.40;99.90
53776;DHT22;44276;49.534;6.378;2022-12-18T07:59:20;-10.30;99.90
53776;DHT22;44276;49.534;6.378;2022-12-18T08:01:48;-10.20;99.90
53776;DHT22;44276;49.534;6.378;2022-12-18T08:04:17;-10.10;99.90
53776;DHT22;44276;49.534;6.378;2022-12-18T08:06:47;-10.00;99.90
53776;DHT22;44276;49.534;6.378;2022-12-18T08:09:15;-9.90;99.90
53776;DHT22;44276;49.534;6.378;2022-12-18T08:11:43;-9.80;99.90
53776;DHT22;44276;49.534;6.378;2022-12-18T08:14:12;-9.60;99.90
53776;DHT22;44276;49.534;6.378;2022-12-18T08:16:41;-9.50;99.90
53776;DHT22;44276;49.534;6.378;2022-12-18T08:19:09;-9.50;99.90
53776;DHT22;44276;49.534;6.378;2022-12-18T08:21:38;-9.50;99.90
53776;DHT22;44276;49.534;6.378;2022-12-18T08:24:09;-9.40;99.90
53776;DHT22;44276;49.534;6.378;2022-12-18T08:26:37;-9.40;99.90
53776;DHT22;44276;49.534;6.378;2022-12-18T08:29:06;-9.40;99.90
53776;DHT22;44276;49.534;6.378;2022-12-18T08:31:36;-9.30;99.90
53776;DHT22;44276;49.534;6.378;2022-12-18T08:34:05;-9.30;99.90
53776;DHT22;44276;49.534;6.378;2022-12-18T08:36:33;-9.20;99.90
53776;DHT22;44276;49.534;6.378;2022-12-18T08:39:04;-9.20;99.90
53776;DHT22;44276;49.534;6.378;2022-12-18T08:41:34;-9.10;99.90
53776;DHT22;44276;49.534;6.378;2022-12-18T08:44:02;-9.00;99.90
53776;DHT22;44276;49.534;6.378;2022-12-18T08:47:05;-8.60;99.90
53776;DHT22;44276;49.534;6.378;2022-12-18T08:49:36;-7.40;99.90
53776;DHT22;44276;49.534;6.378;2022-12-18T08:52:05;-6.50;99.90
53776;DHT22;44276;49.534;6.378;2022-12-18T08:54:33;-5.90;99.90
53776;DHT22;44276;49.534;6.378;2022-12-18T08:57:03;-5.40;99.90
53776;DHT22;44276;49.534;6.378;2022-12-18T08:59:32;-5.20;99.90
53776;DHT22;44276;49.534;6.378;2022-12-18T09:02:00;-4.60;99.90
53776;DHT22;44276;49.534;6.378;2022-12-18T09:04:28;-4.50;99.90
53776;DHT22;44276;49.534;6.378;2022-12-18T09:07:21;-4.10;99.90
53776;DHT22;44276;49.534;6.378;2022-12-18T09:10:29;-3.40;99.90
53776;DHT22;44276;49.534;6.378;2022-12-18T09:14:13;-2.60;99.90
53776;DHT22;44276;49.534;6.378;2022-12-18T09:16:41;-2.20;99.90
53776;DHT22;44276;49.534;6.378;2022-12-18T09:19:13;-1.50;99.90
53776;DHT22;44276;49.534;6.378;2022-12-18T09:21:41;-1.40;99.90
53776;DHT22;44276;49.534;6.378;2022-12-18T09:24:14;-1.30;99.90
53776;DHT22;44276;49.534;6.378;2022-12-18T09:26:43;-1.20;99.90
53776;DHT22;44276;49.534;6.378;2022-12-18T09:29:15;-1.10;99.90
53776;DHT22;44276;49.534;6.378;2022-12-18T09:31:44;-0.90;99.90
53776;DHT22;44276;49.534;6.378;2022-12-18T09:34:13;-0.80;99.90
53776;DHT22;44276;49.534;6.378;2022-12-18T09:36:41;-0.40;99.90
53776;DHT22;44276;49.534;6.378;2022-12-18T09:39:10;-1.10;55.40
53776;DHT22;44276;49.534;6.378;2022-12-18T09:41:45;-0.60;68.00
53776;DHT22;44276;49.534;6.378;2022-12-18T09:44:25;-0.50;56.80
53776;DHT22;44276;49.534;6.378;2022-12-18T09:47:07;-0.90;47.50
53776;DHT22;44276;49.534;6.378;2022-12-18T09:49:43;-1.00;49.10
53776;DHT22;44276;49.534;6.378;2022-12-18T09:52:17;-0.50;47.10
53776;DHT22;44276;49.534;6.378;2022-12-18T09:54:53;-0.10;56.70
53776;DHT22;44276;49.534;6.378;2022-12-18T09:57:26;0.20;48.10
53776;DHT22;44276;49.534;6.378;2022-12-18T09:59:59;0.10;47.10
53776;DHT22;44276;49.534;6.378;2022-12-18T10:02:34;-0.40;44.20
53776;DHT22;44276;49.534;6.378;2022-12-18T10:05:05;-0.80;52.00
53776;DHT22;44276;49.534;6.378;2022-12-18T10:07:49;-1.10;53.00
53776;DHT22;44276;49.534;6.378;2022-12-18T10:10:30;-0.70;69.00
53776;DHT22;44276;49.534;6.378;2022-12-18T10:13:15;-0.50;60.30
53776;DHT22;44276;49.534;6.378;2022-12-18T10:16:01;-0.40;59.40
53776;DHT22;44276;49.534;6.378;2022-12-18T10:18:53;-0.20;62.70
53776;DHT22;44276;49.534;6.378;2022-12-18T10:21:33;0.30;54.50
53776;DHT22;44276;49.534;6.378;2022-12-18T10:24:16;0.10;52.40
53776;DHT22;44276;49.534;6.378;2022-12-18T10:26:56;0.20;53.30
53776;DHT22;44276;49.534;6.378;2022-12-18T10:29:35;0.20;54.10
53776;DHT22;44276;49.534;6.378;2022-12-18T10:32:05;0.10;54.10
53776;DHT22;44276;49.534;6.378;2022-12-18T10:34:35;0.10;66.10
53776;DHT22;44276;49.534;6.378;2022-12-18T10:37:06;0.50;65.20
53776;DHT22;44276;49.534;6.378;2022-12-18T10:39:43;0.80;71.50
53776;DHT22;44276;49.534;6.378;2022-12-18T10:42:17;0.80;50.60
53776;DHT22;44276;49.534;6.378;2022-12-18T10:45:01;0.70;59.50
53776;DHT22;44276;49.534;6.378;2022-12-18T10:47:33;1.00;76.30
53776;DHT22;44276;49.534;6.378;2022-12-18T10:50:03;1.20;50.80
53776;DHT22;44276;49.534;6.378;2022-12-18T10:52:32;1.20;50.30
53776;DHT22;44276;49.534;6.378;2022-12-18T10:55:16;1.00;45.00
53776;DHT22;44276;49.534;6.378;2022-12-18T10:57:49;1.20;48.10
53776;DHT22;44276;49.534;6.378;2022-12-18T11:00:23;1.20;46.30
53776;DHT22;44276;49.534;6.378;2022-12-18T11:03:31;1.10;48.50
53776;DHT22;44276;49.534;6.378;2022-12-18T11:06:07;0.70;42.70
53776;DHT22;44276;49.534;6.378;2022-12-18T11:08:58;0.50;47.90
53776;DHT22;44276;49.534;6.378;2022-12-18T11:11:48;0.00;46.40
53776;DHT22;44276;49.534;6.378;2022-12-18T11:14:22;-0.40;47.50
53776;DHT22;44276;49.534;6.378;2022-12-18T11:16:55;-0.40;51.20
53776;DHT22;44276;49.534;6.378;2022-12-18T11:19:52;-0.10;57.60
53776;DHT22;44276;49.534;6.378;2022-12-18T11:22:24;0.00;46.70
53776;DHT22;44276;49.534;6.378;2022-12-18T11:24:57;0.40;49.00
53776;DHT22;44276;49.534;6.378;2022-12-18T11:27:49;0.60;45.80
53776;DHT22;44276;49.534;6.378;2022-12-18T11:30:23;1.00;51.00
53776;DHT22;44276;49.534;6.378;2022-12-18T11:33:06;0.90;46.30
53776;DHT22;44276;49.534;6.378;2022-12-18T11:35:48;0.80;43.90
53776;DHT22;44276;49.534;6.378;2022-12-18T11:38:28;0.70;45.40
53776;DHT22;44276;49.534;6.378;2022-12-18T11:41:05;0.50;53.70
53776;DHT22;44276;49.534;6.378;2022-12-18T11:43:48;0.20;50.60
53776;DHT22;44276;49.534;6.378;2022-12-18T11:46:25;0.20;57.80
53776;DHT22;44276;49.534;6.378;2022-12-18T11:49:07;0.00;55.90
53776;DHT22;44276;49.534;6.378;2022-12-18T11:51:50;-0.30;64.30
53776;DHT22;44276;49.534;6.378;2022-12-18T11:54:23;-0.60;65.30
53776;DHT22;44276;49.534;6.378;2022-12-18T11:56:58;-0.70;71.40
53776;DHT22;44276;49.534;6.378;2022-12-18T11:59:43;-0.70;75.50
53776;DHT22;44276;49.534;6.378;2022-12-18T12:02:32;-0.80;80.00
53776;DHT22;44276;49.534;6.378;2022-12-18T12:05:38;-0.90;74.80
53776;DHT22;44276;49.534;6.378;2022-12-18T12:08:22;-0.90;75.90
53776;DHT22;44276;49.534;6.378;2022-12-18T12:11:07;-0.80;82.00
53776;DHT22;44276;49.534;6.378;2022-12-18T12:13:47;-0.90;70.80
53776;DHT22;44276;49.534;6.378;2022-12-18T12:16:37;-0.70;84.30
53776;DHT22;44276;49.534;6.378;2022-12-18T12:19:26;-0.50;71.60
53776;DHT22;44276;49.534;6.378;2022-12-18T12:22:09;-0.50;67.70
53776;DHT22;44276;49.534;6.378;2022-12-18T12:24:58;-0.60;69.70
53776;DHT22;44276;49.534;6.378;2022-12-18T12:27:43;-0.50;68.70
53776;DHT22;44276;49.534;6.378;2022-12-18T12:30:32;-0.40;65.40
53776;DHT22;44276;49.534;6.378;2022-12-18T12:33:18;-0.30;68.40
53776;DHT22;44276;49.534;6.378;2022-12-18T12:36:04;-0.20;65.10
53776;DHT22;44276;49.534;6.378;2022-12-18T12:39:23;-0.20;63.30
53776;DHT22;44276;49.534;6.378;2022-12-18T12:42:04;-0.20;73.00
53776;DHT22;44276;49.534;6.378;2022-12-18T12:45:04;-0.20;65.40
53776;DHT22;44276;49.534;6.378;2022-12-18T12:47:40;-0.10;71.60
53776;DHT22;44276;49.534;6.378;2022-12-18T12:50:30;-0.10;66.60
53776;DHT22;44276;49.534;6.378;2022-12-18T12:53:06;-0.20;62.70
53776;DHT22;44276;49.534;6.378;2022-12-18T12:55:50;-0.20;65.70
53776;DHT22;44276;49.534;6.378;2022-12-18T12:58:29;-0.30;78.80
53776;DHT22;44276;49.534;6.378;2022-12-18T13:01:40;-0.60;76.30
53776;DHT22;44276;49.534;6.378;2022-12-18T13:04:28;-0.50;71.60
53776;DHT22;44276;49.534;6.378;2022-12-18T13:07:05;-0.40;66.10
53776;DHT22;44276;49.534;6.378;2022-12-18T13:10:22;-0.40;74.80
53776;DHT22;44276;49.534;6.378;2022-12-18T13:12:58;-0.50;71.60
53776;DHT22;44276;49.534;6.378;2022-12-18T13:15:37;-0.60;72.40
53776;DHT22;44276;49.534;6.378;2022-12-18T13:18:16;-0.70;82.50
53776;DHT22;44276;49.534;6.378;2022-12-18T13:20:51;-0.80;80.20
53776;DHT22;44276;49.534;6.378;2022-12-18T13:23:34;-0.80;78.70
53776;DHT22;44276;49.534;6.378;2022-12-18T13:26:29;-0.80;83.90
53776;DHT22;44276;49.534;6.378;2022-12-18T13:37:44;-0.60;68.70
53776;DHT22;44276;49.534;6.378;2022-12-18T13:40:56;-0.80;70.10
53776;DHT22;44276;49.534;6.378;2022-12-18T13:43:37;-0.80;82.10
53776;DHT22;44276;49.534;6.378;2022-12-18T13:46:21;-0.80;80.00
53776;DHT22;44276;49.534;6.378;2022-12-18T13:48:55;-0.90;78.50
53776;DHT22;44276;49.534;6.378;2022-12-18T13:51:28;-1.00;82.50
53776;DHT22;44276;49.534;6.378;2022-12-18T13:54:02;-1.00;90.60
53776;DHT22;44276;49.534;6.378;2022-12-18T13:56:44;-1.00;93.10
53776;DHT22;44276;49.534;6.378;2022-12-18T13:59:19;-1.10;88.40
53776;DHT22;44276;49.534;6.378;2022-12-18T14:01:52;-1.10;94.50
53776;DHT22;44276;49.534;6.378;2022-12-18T14:04:27;-1.30;94.20
53776;DHT22;44276;49.534;6.378;2022-12-18T14:07:03;-1.50;96.20
53776;DHT22;44276;49.534;6.378;2022-12-18T14:09:40;-1.60;99.90
53776;DHT22;44276;49.534;6.378;2022-12-18T14:12:19;-1.70;99.90
53776;DHT22;44276;49.534;6.378;2022-12-18T14:15:15;-1.80;99.90
53776;DHT22;44276;49.534;6.378;2022-12-18T14:17:55;-1.90;99.90
53776;DHT22;44276;49.534;6.378;2022-12-18T14:20:31;-1.90;99.90
53776;DHT22;44276;49.534;6.378;2022-12-18T14:23:00;-2.00;99.90
53776;DHT22;44276;49.534;6.378;2022-12-18T14:25:36;-2.00;99.90
53776;DHT22;44276;49.534;6.378;2022-12-18T14:28:13;-2.10;99.90
53776;DHT22;44276;49.534;6.378;2022-12-18T14:42:23;-2.30;99.90
53776;DHT22;44276;49.534;6.378;2022-12-18T14:55:15;-2.40;99.90
53776;DHT22;44276;49.534;6.378;2022-12-18T14:57:49;-2.50;99.90
53776;DHT22;44276;49.534;6.378;2022-12-18T15:00:23;-2.60;99.90
53776;DHT22;44276;49.534;6.378;2022-12-18T15:04:00;-2.60;99.90
53776;DHT22;44276;49.534;6.378;2022-12-18T15:06:34;-2.60;99.90
53776;DHT22;44276;49.534;6.378;2022-12-18T15:09:18;-2.60;99.90
53776;DHT22;44276;49.534;6.378;2022-12-18T15:11:55;-2.60;99.90
53776;DHT22;44276;49.534;6.378;2022-12-18T15:14:52;-2.70;99.90
53776;DHT22;44276;49.534;6.378;2022-12-18T15:17:22;-2.80;99.90
53776;DHT22;44276;49.534;6.378;2022-12-18T15:19:57;-2.80;99.90
53776;DHT22;44276;49.534;6.378;2022-12-18T15:22:29;-2.90;99.90
53776;DHT22;44276;49.534;6.378;2022-12-18T15:25:03;-2.90;99.90
53776;DHT22;44276;49.534;6.378;2022-12-18T15:27:52;-3.00;99.90
53776;DHT22;44276;49.534;6.378;2022-12-18T15:30:25;-3.10;99.90
53776;DHT22;44276;49.534;6.378;2022-12-18T15:33:23;-3.10;99.90
53776;DHT22;44276;49.534;6.378;2022-12-18T15:35:58;-3.10;99.90
53776;DHT22;44276;49.534;6.378;2022-12-18T15:38:27;-3.20;99.90
53776;DHT22;44276;49.534;6.378;2022-12-18T15:40:57;-3.10;99.90
53776;DHT22;44276;49.534;6.378;2022-12-18T15:43:29;-3.20;99.90
53776;DHT22;44276;49.534;6.378;2022-12-18T15:46:11;-3.20;99.90
53776;DHT22;44276;49.534;6.378;2022-12-18T15:49:08;-3.10;99.90
53776;DHT22;44276;49.534;6.378;2022-12-18T15:51:53;-3.10;99.90
53776;DHT22;44276;49.534;6.378;2022-12-18T15:54:38;-3.10;99.90
53776;DHT22;44276;49.534;6.378;2022-12-18T15:57:32;-3.10;99.90
53776;DHT22;44276;49.534;6.378;2022-12-18T16:00:04;-3.20;99.90
53776;DHT22;44276;49.534;6.378;2022-12-18T16:02:52;-3.20;99.90
53776;DHT22;44276;49.534;6.378;2022-12-18T16:05:36;-3.30;99.90
53776;DHT22;44276;49.534;6.378;2022-12-18T16:08:04;-3.30;99.90
53776;DHT22;44276;49.534;6.378;2022-12-18T16:10:33;-3.20;99.90
53776;DHT22;44276;49.534;6.378;2022-12-18T16:13:11;-3.10;99.90
53776;DHT22;44276;49.534;6.378;2022-12-18T16:15:48;-3.00;99.90
53776;DHT22;44276;49.534;6.378;2022-12-18T16:18:21;-3.00;99.90
53776;DHT22;44276;49.534;6.378;2022-12-18T16:20:51;-2.90;99.90
53776;DHT22;44276;49.534;6.378;2022-12-18T16:23:35;-2.80;99.90
53776;DHT22;44276;49.534;6.378;2022-12-18T16:26:12;-2.60;99.90
53776;DHT22;44276;49.534;6.378;2022-12-18T16:28:43;-2.60;99.90
53776;DHT22;44276;49.534;6.378;2022-12-18T16:31:14;-2.50;99.90
53776;DHT22;44276;49.534;6.378;2022-12-18T16:33:44;-2.50;99.90
53776;DHT22;44276;49.534;6.378;2022-12-18T16:36:12;-2.40;99.90
53776;DHT22;44276;49.534;6.378;2022-12-18T16:38:41;-2.40;99.90
53776;DHT22;44276;49.534;6.378;2022-12-18T16:41:18;-2.40;99.90
53776;DHT22;44276;49.534;6.378;2022-12-18T16:44:03;-2.50;99.90
53776;DHT22;44276;49.534;6.378;2022-12-18T16:46:32;-2.60;99.90
53776;DHT22;44276;49.534;6.378;2022-12-18T16:49:05;-2.60;99.90
53776;DHT22;44276;49.534;6.378;2022-12-18T16:51:34;-2.60;99.90
53776;DHT22;44276;49.534;6.378;2022-12-18T16:54:23;-2.60;99.90
53776;DHT22;44276;49.534;6.378;2022-12-18T16:57:14;-2.60;99.90
53776;DHT22;44276;49.534;6.378;2022-12-18T16:59:55;-2.60;99.90
53776;DHT22;44276;49.534;6.378;2022-12-18T17:02:31;-2.50;99.90